sensor_id;sensor_type;location;lat;lon;timestamp;pressure;altitude;pressure_sealevel;temperature;humidity
77106;BME280;66057;54.718;18.426;2023-03-01T00:00:00;102738.47;;;1.01;100.00
77106;BME280;66057;54.718;18.426;2023-03-01T00:02:25;102731.94;;;1.03;100.00
77106;BME280;66057;54.718;18.426;2023-03-01T00:04:51;102720.91;;;1.03;100.00
77106;BME280;66057;54.718;18.426;2023-03-01T00:07:17;102719.50;;;0.98;100.00
77106;BME280;66057;54.718;18.426;2023-03-01T00:09:43;102701.19;;;0.84;100.00
77106;BME280;66057;54.718;18.426;2023-03-01T00:12:11;102713.63;;;0.90;100.00
77106;BME280;66057;54.718;18.426;2023-03-01T00:14:37;102698.31;;;0.81;100.00
77106;BME280;66057;54.718;18.426;2023-03-01T00:17:03;102709.69;;;0.85;100.00
77106;BME280;66057;54.718;18.426;2023-03-01T00:19:29;102718.16;;;0.85;100.00
77106;BME280;66057;54.718;18.426;2023-03-01T00:21:55;102718.72;;;0.83;100.00
77106;BME280;66057;54.718;18.426;2023-03-01T00:24:21;102728.94;;;0.92;100.00
77106;BME280;66057;54.718;18.426;2023-03-01T00:26:46;102728.44;;;0.87;100.00
77106;BME280;66057;54.718;18.426;2023-03-01T00:29:13;102710.97;;;0.81;100.00
77106;BME280;66057;54.718;18.426;2023-03-01T00:31:38;102739.66;;;0.89;100.00
77106;BME280;66057;54.718;18.426;2023-03-01T00:34:07;102720.50;;;0.91;100.00
77106;BME280;66057;54.718;18.426;2023-03-01T00:36:37;102716.47;;;0.93;100.00
77106;BME280;66057;54.718;18.426;2023-03-01T00:39:05;102711.59;;;0.95;100.00
77106;BME280;66057;54.718;18.426;2023-03-01T00:41:33;102720.09;;;0.95;100.00
77106;BME280;66057;54.718;18.426;2023-03-01T00:44:00;102724.97;;;0.94;100.00
77106;BME280;66057;54.718;18.426;2023-03-01T00:46:29;102720.63;;;0.93;100.00
77106;BME280;66057;54.718;18.426;2023-03-01T00:48:56;102713.41;;;0.96;100.00
77106;BME280;66057;54.718;18.426;2023-03-01T00:51:27;102702.97;;;0.85;100.00
77106;BME280;66057;54.718;18.426;2023-03-01T00:53:58;102700.38;;;0.93;100.00
77106;BME280;66057;54.718;18.426;2023-03-01T00:56:25;102697.44;;;0.97;100.00
77106;BME280;66057;54.718;18.426;2023-03-01T00:58:52;102692.97;;;0.94;100.00
77106;BME280;66057;54.718;18.426;2023-03-01T01:01:21;102702.91;;;0.93;100.00
77106;BME280;66057;54.718;18.426;2023-03-01T01:03:58;102697.84;;;0.93;100.00
77106;BME280;66057;54.718;18.426;2023-03-01T01:06:46;102690.03;;;0.98;100.00
77106;BME280;66057;54.718;18.426;2023-03-01T01:09:15;102687.41;;;0.90;100.00
77106;BME280;66057;54.718;18.426;2023-03-01T01:11:50;102695.81;;;0.97;100.00
77106;BME280;66057;54.718;18.426;2023-03-01T01:14:17;102697.44;;;0.97;100.00
77106;BME280;66057;54.718;18.426;2023-03-01T01:16:43;102701.97;;;0.99;100.00
77106;BME280;66057;54.718;18.426;2023-03-01T01:19:11;102690.84;;;0.90;100.00
77106;BME280;66057;54.718;18.426;2023-03-01T01:21:37;102675.66;;;0.90;100.00
77106;BME280;66057;54.718;18.426;2023-03-01T01:24:04;102677.94;;;0.96;100.00
77106;BME280;66057;54.718;18.426;2023-03-01T01:26:37;102666.75;;;0.94;100.00
77106;BME280;66057;54.718;18.426;2023-03-01T01:29:04;102680.41;;;1.03;100.00
77106;BME280;66057;54.718;18.426;2023-03-01T01:31:35;102682.75;;;1.01;100.00
77106;BME280;66057;54.718;18.426;2023-03-01T01:34:06;102681.88;;;1.01;100.00
77106;BME280;66057;54.718;18.426;2023-03-01T01:36:33;102687.69;;;1.00;100.00
77106;BME280;66057;54.718;18.426;2023-03-01T01:39:05;102674.84;;;0.98;100.00
77106;BME280;66057;54.718;18.426;2023-03-01T01:41:31;102669.94;;;1.00;100.00
77106;BME280;66057;54.718;18.426;2023-03-01T01:44:33;102655.00;;;0.94;100.00
77106;BME280;66057;54.718;18.426;2023-03-01T01:47:05;102661.84;;;0.95;100.00
77106;BME280;66057;54.718;18.426;2023-03-01T01:52:17;102656.56;;;1.01;100.00
77106;BME280;66057;54.718;18.426;2023-03-01T01:54:56;102643.63;;;0.91;100.00
77106;BME280;66057;54.718;18.426;2023-03-01T01:57:32;102670.28;;;1.03;100.00
77106;BME280;66057;54.718;18.426;2023-03-01T02:00:06;102657.13;;;0.98;100.00
77106;BME280;66057;54.718;18.426;2023-03-01T02:02:33;102658.03;;;0.99;100.00
77106;BME280;66057;54.718;18.426;2023-03-01T02:05:11;102653.28;;;1.02;100.00
77106;BME280;66057;54.718;18.426;2023-03-01T02:07:39;102662.84;;;1.04;100.00
77106;BME280;66057;54.718;18.426;2023-03-01T02:10:07;102644.97;;;1.03;100.00
77106;BME280;66057;54.718;18.426;2023-03-01T02:12:36;102648.22;;;1.02;100.00
77106;BME280;66057;54.718;18.426;2023-03-01T02:15:04;102650.03;;;1.03;100.00
77106;BME280;66057;54.718;18.426;2023-03-01T02:17:32;102644.97;;;1.03;100.00
77106;BME280;66057;54.718;18.426;2023-03-01T02:22:35;102640.56;;;1.09;100.00
77106;BME280;66057;54.718;18.426;2023-03-01T02:25:12;102637.84;;;1.07;100.00
77106;BME280;66057;54.718;18.426;2023-03-01T02:30:40;102627.56;;;1.06;100.00
77106;BME280;66057;54.718;18.426;2023-03-01T02:33:26;102604.44;;;1.03;100.00
77106;BME280;66057;54.718;18.426;2023-03-01T02:36:06;102612.44;;;0.99;100.00
77106;BME280;66057;54.718;18.426;2023-03-01T02:38:33;102620.72;;;1.05;100.00
77106;BME280;66057;54.718;18.426;2023-03-01T02:41:02;102613.13;;;1.05;100.00
77106;BME280;66057;54.718;18.426;2023-03-01T02:43:31;102616.38;;;1.04;100.00
77106;BME280;66057;54.718;18.426;2023-03-01T02:46:07;102614.53;;;1.10;100.00
77106;BME280;66057;54.718;18.426;2023-03-01T02:48:44;102602.09;;;1.04;100.00
77106;BME280;66057;54.718;18.426;2023-03-01T02:51:16;102610.19;;;1.09;100.00
77106;BME280;66057;54.718;18.426;2023-03-01T02:56:26;102602.00;;;1.11;100.00
77106;BME280;66057;54.718;18.426;2023-03-01T02:58:52;102606.50;;;1.14;100.00
77106;BME280;66057;54.718;18.426;2023-03-01T03:01:19;102605.78;;;1.15;100.00
77106;BME280;66057;54.718;18.426;2023-03-01T03:03:45;102598.69;;;1.19;100.00
77106;BME280;66057;54.718;18.426;2023-03-01T03:06:11;102614.09;;;1.14;100.00
77106;BME280;66057;54.718;18.426;2023-03-01T03:08:37;102600.94;;;1.09;100.00
77106;BME280;66057;54.718;18.426;2023-03-01T03:11:05;102607.56;;;1.16;100.00
77106;BME280;66057;54.718;18.426;2023-03-01T03:13:30;102596.53;;;1.15;100.00
77106;BME280;66057;54.718;18.426;2023-03-01T03:15:57;102587.16;;;1.14;100.00
77106;BME280;66057;54.718;18.426;2023-03-01T03:18:24;102589.69;;;1.14;100.00
77106;BME280;66057;54.718;18.426;2023-03-01T03:20:53;102581.59;;;1.10;100.00
77106;BME280;66057;54.718;18.426;2023-03-01T03:23:21;102601.75;;;1.17;100.00
77106;BME280;66057;54.718;18.426;2023-03-01T03:25:49;102592.34;;;1.16;100.00
77106;BME280;66057;54.718;18.426;2023-03-01T03:28:15;102587.56;;;1.10;100.00
77106;BME280;66057;54.718;18.426;2023-03-01T03:30:42;102584.84;;;1.09;100.00
77106;BME280;66057;54.718;18.426;2023-03-01T03:33:10;102583.06;;;1.08;100.00
77106;BME280;66057;54.718;18.426;2023-03-01T03:35:46;102580.69;;;1.09;100.00
77106;BME280;66057;54.718;18.426;2023-03-01T03:38:13;102586.06;;;1.12;100.00
77106;BME280;66057;54.718;18.426;2023-03-01T03:40:46;102576.19;;;1.07;100.00
77106;BME280;66057;54.718;18.426;2023-03-01T03:43:17;102572.44;;;1.03;100.00
77106;BME280;66057;54.718;18.426;2023-03-01T03:45:45;102566.22;;;1.08;100.00
77106;BME280;66057;54.718;18.426;2023-03-01T03:48:12;102564.25;;;1.06;100.00
77106;BME280;66057;54.718;18.426;2023-03-01T03:50:39;102563.53;;;1.07;100.00
77106;BME280;66057;54.718;18.426;2023-03-01T03:53:11;102567.69;;;1.06;100.00
77106;BME280;66057;54.718;18.426;2023-03-01T03:55:38;102562.06;;;1.09;100.00
77106;BME280;66057;54.718;18.426;2023-03-01T03:58:09;102571.13;;;1.07;100.00
77106;BME280;66057;54.718;18.426;2023-03-01T04:00:43;102565.00;;;1.05;100.00
77106;BME280;66057;54.718;18.426;2023-03-01T04:03:10;102565.50;;;1.09;100.00
77106;BME280;66057;54.718;18.426;2023-03-01T04:05:38;102559.19;;;1.06;100.00
77106;BME280;66057;54.718;18.426;2023-03-01T04:08:05;102555.44;;;1.02;100.00
77106;BME280;66057;54.718;18.426;2023-03-01T04:10:43;102556.34;;;1.03;100.00
77106;BME280;66057;54.718;18.426;2023-03-01T04:13:16;102559.28;;;0.99;100.00
77106;BME280;66057;54.718;18.426;2023-03-01T04:15:54;102554.88;;;1.05;100.00
77106;BME280;66057;54.718;18.426;2023-03-01T04:18:22;102567.69;;;1.06;100.00
77106;BME280;66057;54.718;18.426;2023-03-01T04:20:49;102571.72;;;1.04;100.00
77106;BME280;66057;54.718;18.426;2023-03-01T04:23:17;102563.38;;;1.05;100.00
77106;BME280;66057;54.718;18.426;2023-03-01T04:28:30;102568.59;;;1.07;100.00
77106;BME280;66057;54.718;18.426;2023-03-01T04:30:58;102563.38;;;1.05;100.00
77106;BME280;66057;54.718;18.426;2023-03-01T04:33:30;102572.19;;;1.09;100.00
77106;BME280;66057;54.718;18.426;2023-03-01T04:35:56;102577.25;;;1.09;100.00
77106;BME280;66057;54.718;18.426;2023-03-01T04:38:22;102585.03;;;1.10;100.00
77106;BME280;66057;54.718;18.426;2023-03-01T04:40:53;102579.06;;;1.10;100.00
77106;BME280;66057;54.718;18.426;2023-03-01T04:43:19;102576.91;;;1.06;100.00
77106;BME280;66057;54.718;18.426;2023-03-01T04:45:52;102554.78;;;0.96;100.00
77106;BME280;66057;54.718;18.426;2023-03-01T04:48:17;102576.19;;;1.07;100.00
77106;BME280;66057;54.718;18.426;2023-03-01T04:50:44;102562.22;;;0.95;100.00
77106;BME280;66057;54.718;18.426;2023-03-01T04:53:09;102583.69;;;0.98;100.00
77106;BME280;66057;54.718;18.426;2023-03-01T04:55:36;102571.94;;;0.99;100.00
77106;BME280;66057;54.718;18.426;2023-03-01T04:58:02;102574.88;;;0.95;100.00
77106;BME280;66057;54.718;18.426;2023-03-01T05:00:28;102572.75;;;0.91;100.00
77106;BME280;66057;54.718;18.426;2023-03-01T05:02:59;102547.00;;;0.79;100.00
77106;BME280;66057;54.718;18.426;2023-03-01T05:05:34;102552.16;;;0.87;100.00
77106;BME280;66057;54.718;18.426;2023-03-01T05:08:03;102563.00;;;0.86;100.00
77106;BME280;66057;54.718;18.426;2023-03-01T05:10:31;102554.69;;;0.87;100.00
77106;BME280;66057;54.718;18.426;2023-03-01T05:12:58;102553.25;;;0.90;100.00
77106;BME280;66057;54.718;18.426;2023-03-01T05:15:26;102548.81;;;0.80;100.00
77106;BME280;66057;54.718;18.426;2023-03-01T05:17:56;102547.50;;;0.83;100.00
77106;BME280;66057;54.718;18.426;2023-03-01T05:20:27;102555.78;;;0.90;100.00
77106;BME280;66057;54.718;18.426;2023-03-01T05:22:56;102559.69;;;0.95;100.00
77106;BME280;66057;54.718;18.426;2023-03-01T05:25:22;102544.56;;;0.87;100.00
77106;BME280;66057;54.718;18.426;2023-03-01T05:27:52;102550.47;;;0.95;100.00
77106;BME280;66057;54.718;18.426;2023-03-01T05:30:18;102525.94;;;0.87;100.00
77106;BME280;66057;54.718;18.426;2023-03-01T05:32:47;102541.63;;;0.92;100.00
77106;BME280;66057;54.718;18.426;2023-03-01T05:35:17;102548.84;;;0.96;100.00
77106;BME280;66057;54.718;18.426;2023-03-01T05:37:45;102552.41;;;0.98;100.00
77106;BME280;66057;54.718;18.426;2023-03-01T05:40:14;102553.56;;;0.93;100.00
77106;BME280;66057;54.718;18.426;2023-03-01T05:42:48;102549.16;;;0.99;100.00
77106;BME280;66057;54.718;18.426;2023-03-01T05:45:15;102565.25;;;0.99;100.00
77106;BME280;66057;54.718;18.426;2023-03-01T05:47:45;102556.44;;;0.96;100.00
77106;BME280;66057;54.718;18.426;2023-03-01T05:50:20;102567.59;;;0.98;100.00
77106;BME280;66057;54.718;18.426;2023-03-01T05:52:51;102566.88;;;0.99;100.00
77106;BME280;66057;54.718;18.426;2023-03-01T05:55:19;102575.19;;;0.98;100.00
77106;BME280;66057;54.718;18.426;2023-03-01T05:57:46;102577.56;;;0.96;100.00
77106;BME280;66057;54.718;18.426;2023-03-01T06:00:13;102574.66;;;1.00;100.00
77106;BME280;66057;54.718;18.426;2023-03-01T06:02:39;102577.00;;;0.99;100.00
77106;BME280;66057;54.718;18.426;2023-03-01T06:05:08;102596.34;;;0.98;100.00
77106;BME280;66057;54.718;18.426;2023-03-01T06:07:34;102564.41;;;0.92;100.00
77106;BME280;66057;54.718;18.426;2023-03-01T06:10:01;102581.47;;;1.01;100.00
77106;BME280;66057;54.718;18.426;2023-03-01T06:12:33;102576.28;;;1.00;100.00
77106;BME280;66057;54.718;18.426;2023-03-01T06:15:04;102590.75;;;1.01;100.00
77106;BME280;66057;54.718;18.426;2023-03-01T06:17:33;102585.31;;;0.98;100.00
77106;BME280;66057;54.718;18.426;2023-03-01T06:20:05;102581.00;;;0.97;100.00
77106;BME280;66057;54.718;18.426;2023-03-01T06:22:34;102596.59;;;0.93;100.00
77106;BME280;66057;54.718;18.426;2023-03-01T06:25:02;102595.28;;;0.96;100.00
77106;BME280;66057;54.718;18.426;2023-03-01T06:27:29;102601.41;;;0.98;100.00
77106;BME280;66057;54.718;18.426;2023-03-01T06:29:55;102594.41;;;0.96;100.00
77106;BME280;66057;54.718;18.426;2023-03-01T06:32:21;102600.75;;;0.92;100.00
77106;BME280;66057;54.718;18.426;2023-03-01T06:34:50;102602.50;;;1.00;100.00
77106;BME280;66057;54.718;18.426;2023-03-01T06:37:16;102606.47;;;0.98;100.00
77106;BME280;66057;54.718;18.426;2023-03-01T06:39:49;102613.53;;;1.01;100.00
77106;BME280;66057;54.718;18.426;2023-03-01T06:42:18;102597.66;;;0.95;100.00
77106;BME280;66057;54.718;18.426;2023-03-01T06:44:47;102600.88;;;1.01;100.00
77106;BME280;66057;54.718;18.426;2023-03-01T06:47:16;102609.69;;;1.04;100.00
77106;BME280;66057;54.718;18.426;2023-03-01T06:49:42;102606.06;;;1.02;100.00
77106;BME280;66057;54.718;18.426;2023-03-01T06:52:08;102604.44;;;1.03;100.00
77106;BME280;66057;54.718;18.426;2023-03-01T06:54:35;102594.41;;;0.96;100.00
77106;BME280;66057;54.718;18.426;2023-03-01T06:57:01;102585.00;;;0.95;100.00
77106;BME280;66057;54.718;18.426;2023-03-01T06:59:27;102600.88;;;1.01;100.00
77106;BME280;66057;54.718;18.426;2023-03-01T07:01:56;102619.63;;;1.03;100.00
77106;BME280;66057;54.718;18.426;2023-03-01T07:04:23;102587.84;;;0.98;100.00
77106;BME280;66057;54.718;18.426;2023-03-01T07:06:48;102605.13;;;1.09;100.00
77106;BME280;66057;54.718;18.426;2023-03-01T07:09:22;102603.31;;;1.08;100.00
77106;BME280;66057;54.718;18.426;2023-03-01T07:11:48;102621.75;;;1.07;100.00
77106;BME280;66057;54.718;18.426;2023-03-01T07:14:15;102604.22;;;1.08;100.00
77106;BME280;66057;54.718;18.426;2023-03-01T07:16:41;102596.44;;;1.07;100.00
77106;BME280;66057;54.718;18.426;2023-03-01T07:19:07;102588.59;;;0.97;100.00
77106;BME280;66057;54.718;18.426;2023-03-01T07:21:33;102610.03;;;1.23;100.00
77106;BME280;66057;54.718;18.426;2023-03-01T07:24:00;102589.69;;;1.14;100.00
77106;BME280;66057;54.718;18.426;2023-03-01T07:26:25;102612.81;;;1.33;100.00
77106;BME280;66057;54.718;18.426;2023-03-01T07:28:52;102594.91;;;1.31;100.00
77106;BME280;66057;54.718;18.426;2023-03-01T07:31:17;102604.81;;;1.37;100.00
77106;BME280;66057;54.718;18.426;2023-03-01T07:33:43;102611.56;;;1.45;100.00
77106;BME280;66057;54.718;18.426;2023-03-01T07:36:09;102610.19;;;1.40;100.00
77106;BME280;66057;54.718;18.426;2023-03-01T07:38:40;102606.09;;;1.49;100.00
77106;BME280;66057;54.718;18.426;2023-03-01T07:41:09;102592.13;;;1.53;100.00
77106;BME280;66057;54.718;18.426;2023-03-01T07:43:36;102597.81;;;1.59;100.00
77106;BME280;66057;54.718;18.426;2023-03-01T07:46:04;102587.44;;;1.64;100.00
77106;BME280;66057;54.718;18.426;2023-03-01T07:48:32;102586.28;;;1.69;100.00
77106;BME280;66057;54.718;18.426;2023-03-01T07:51:05;102583.31;;;1.73;100.00
77106;BME280;66057;54.718;18.426;2023-03-01T07:53:33;102585.13;;;1.74;100.00
77106;BME280;66057;54.718;18.426;2023-03-01T07:56:05;102598.34;;;1.88;100.00
77106;BME280;66057;54.718;18.426;2023-03-01T07:58:38;102599.59;;;1.91;100.00
77106;BME280;66057;54.718;18.426;2023-03-01T08:01:07;102607.34;;;1.93;100.00
77106;BME280;66057;54.718;18.426;2023-03-01T08:03:34;102619.34;;;2.02;100.00
77106;BME280;66057;54.718;18.426;2023-03-01T08:06:06;102604.94;;;2.10;100.00
77106;BME280;66057;54.718;18.426;2023-03-01T08:08:36;102613.91;;;2.15;100.00
77106;BME280;66057;54.718;18.426;2023-03-01T08:11:15;102606.66;;;2.27;100.00
77106;BME280;66057;54.718;18.426;2023-03-01T08:13:50;102595.72;;;2.43;100.00
77106;BME280;66057;54.718;18.426;2023-03-01T08:16:28;102595.38;;;2.40;100.00
77106;BME280;66057;54.718;18.426;2023-03-01T08:19:11;102602.94;;;2.32;100.00
77106;BME280;66057;54.718;18.426;2023-03-01T08:21:40;102588.13;;;2.19;100.00
77106;BME280;66057;54.718;18.426;2023-03-01T08:24:07;102600.69;;;2.26;100.00
77106;BME280;66057;54.718;18.426;2023-03-01T08:26:34;102601.06;;;2.38;100.00
77106;BME280;66057;54.718;18.426;2023-03-01T08:29:00;102595.06;;;2.37;100.00
77106;BME280;66057;54.718;18.426;2023-03-01T08:31:34;102564.59;;;2.29;100.00
77106;BME280;66057;54.718;18.426;2023-03-01T08:34:07;102590.94;;;2.46;100.00
77106;BME280;66057;54.718;18.426;2023-03-01T08:36:37;102580.81;;;2.55;100.00
77106;BME280;66057;54.718;18.426;2023-03-01T08:39:08;102559.34;;;2.60;100.00
77106;BME280;66057;54.718;18.426;2023-03-01T08:41:34;102560.88;;;2.67;100.00
77106;BME280;66057;54.718;18.426;2023-03-01T08:44:01;102558.50;;;2.77;100.00
77106;BME280;66057;54.718;18.426;2023-03-01T08:46:36;102577.66;;;2.90;100.00
77106;BME280;66057;54.718;18.426;2023-03-01T08:49:15;102581.41;;;2.94;100.00
77106;BME280;66057;54.718;18.426;2023-03-01T08:51:48;102579.94;;;2.96;100.00
77106;BME280;66057;54.718;18.426;2023-03-01T08:54:19;102571.56;;;2.97;100.00
77106;BME280;66057;54.718;18.426;2023-03-01T08:56:46;102549.56;;;2.89;100.00
77106;BME280;66057;54.718;18.426;2023-03-01T08:59:14;102581.28;;;3.01;100.00
77106;BME280;66057;54.718;18.426;2023-03-01T09:01:47;102582.03;;;3.00;99.70
77106;BME280;66057;54.718;18.426;2023-03-01T09:04:19;102583.81;;;3.01;99.12
77106;BME280;66057;54.718;18.426;2023-03-01T09:06:48;102563.06;;;3.05;98.64
77106;BME280;66057;54.718;18.426;2023-03-01T09:09:20;102557.25;;;3.06;98.94
77106;BME280;66057;54.718;18.426;2023-03-01T09:11:46;102549.91;;;3.00;97.84
77106;BME280;66057;54.718;18.426;2023-03-01T09:14:13;102574.41;;;3.17;98.35
77106;BME280;66057;54.718;18.426;2023-03-01T09:16:42;102563.41;;;3.25;97.76
77106;BME280;66057;54.718;18.426;2023-03-01T09:19:09;102560.06;;;3.18;97.62
77106;BME280;66057;54.718;18.426;2023-03-01T09:21:37;102549.78;;;3.16;97.49
77106;BME280;66057;54.718;18.426;2023-03-01T09:24:04;102576.25;;;3.35;96.43
77106;BME280;66057;54.718;18.426;2023-03-01T09:26:30;102585.53;;;3.35;96.52
77106;BME280;66057;54.718;18.426;2023-03-01T09:28:57;102582.53;;;3.47;96.62
77106;BME280;66057;54.718;18.426;2023-03-01T09:31:24;102583.44;;;3.48;95.41
77106;BME280;66057;54.718;18.426;2023-03-01T09:33:52;102583.59;;;3.49;96.02
77106;BME280;66057;54.718;18.426;2023-03-01T09:36:23;102587.03;;;3.59;95.26
77106;BME280;66057;54.718;18.426;2023-03-01T09:38:51;102587.91;;;3.68;96.07
77106;BME280;66057;54.718;18.426;2023-03-01T09:44:01;102593.00;;;3.76;94.32
77106;BME280;66057;54.718;18.426;2023-03-01T09:46:36;102606.91;;;3.80;93.95
77106;BME280;66057;54.718;18.426;2023-03-01T09:51:57;102585.34;;;4.02;93.64
77106;BME280;66057;54.718;18.426;2023-03-01T09:54:24;102598.19;;;4.12;93.39
77106;BME280;66057;54.718;18.426;2023-03-01T09:57:01;102591.91;;;4.00;92.67
77106;BME280;66057;54.718;18.426;2023-03-01T10:02:49;102582.91;;;4.21;92.82
77106;BME280;66057;54.718;18.426;2023-03-01T10:10:38;102576.47;;;4.16;92.31
77106;BME280;66057;54.718;18.426;2023-03-01T10:16:19;102570.16;;;4.29;91.66
77106;BME280;66057;54.718;18.426;2023-03-01T10:18:53;102571.22;;;4.31;91.46
77106;BME280;66057;54.718;18.426;2023-03-01T10:21:20;102582.13;;;4.30;91.88
77106;BME280;66057;54.718;18.426;2023-03-01T10:23:50;102566.78;;;4.48;91.65
77106;BME280;66057;54.718;18.426;2023-03-01T10:31:49;102581.47;;;4.42;91.13
77106;BME280;66057;54.718;18.426;2023-03-01T10:34:17;102571.28;;;4.50;90.59
77106;BME280;66057;54.718;18.426;2023-03-01T10:36:48;102566.75;;;4.56;90.31
77106;BME280;66057;54.718;18.426;2023-03-01T10:39:17;102552.13;;;4.45;90.05
77106;BME280;66057;54.718;18.426;2023-03-01T10:42:18;102567.84;;;4.50;90.67
77106;BME280;66057;54.718;18.426;2023-03-01T10:44:47;102556.56;;;4.56;90.15
77106;BME280;66057;54.718;18.426;2023-03-01T10:47:22;102567.63;;;4.57;89.89
77106;BME280;66057;54.718;18.426;2023-03-01T10:49:57;102569.16;;;4.46;89.84
77106;BME280;66057;54.718;18.426;2023-03-01T10:52:34;102566.00;;;4.57;89.71
77106;BME280;66057;54.718;18.426;2023-03-01T10:57:43;102564.44;;;4.68;89.21
77106;BME280;66057;54.718;18.426;2023-03-01T11:00:28;102578.03;;;4.77;89.30
77106;BME280;66057;54.718;18.426;2023-03-01T11:05:25;102575.97;;;4.73;88.96
77106;BME280;66057;54.718;18.426;2023-03-01T11:07:54;102559.50;;;4.69;88.74
77106;BME280;66057;54.718;18.426;2023-03-01T11:10:24;102560.91;;;4.84;88.13
77106;BME280;66057;54.718;18.426;2023-03-01T11:12:52;102556.84;;;4.87;87.92
77106;BME280;66057;54.718;18.426;2023-03-01T11:15:28;102561.31;;;4.98;87.63
77106;BME280;66057;54.718;18.426;2023-03-01T11:17:56;102551.84;;;4.97;87.33
77106;BME280;66057;54.718;18.426;2023-03-01T11:20:35;102556.56;;;5.11;87.29
77106;BME280;66057;54.718;18.426;2023-03-01T11:23:12;102541.59;;;5.05;86.98
77106;BME280;66057;54.718;18.426;2023-03-01T11:25:43;102537.97;;;5.12;86.27
77106;BME280;66057;54.718;18.426;2023-03-01T11:28:16;102547.59;;;5.24;86.50
77106;BME280;66057;54.718;18.426;2023-03-01T11:31:05;102539.34;;;5.46;85.71
77106;BME280;66057;54.718;18.426;2023-03-01T11:38:39;102549.34;;;5.82;83.14
77106;BME280;66057;54.718;18.426;2023-03-01T11:41:10;102561.66;;;6.14;82.33
77106;BME280;66057;54.718;18.426;2023-03-01T11:46:49;102540.81;;;6.49;80.54
77106;BME280;66057;54.718;18.426;2023-03-01T12:06:43;102529.91;;;8.05;73.26
77106;BME280;66057;54.718;18.426;2023-03-01T12:09:47;102512.78;;;7.94;73.41
77106;BME280;66057;54.718;18.426;2023-03-01T12:12:29;102515.56;;;8.50;71.77
77106;BME280;66057;54.718;18.426;2023-03-01T12:20:50;102522.13;;;9.13;67.13
77106;BME280;66057;54.718;18.426;2023-03-01T12:27:05;102520.09;;;8.98;66.08
77106;BME280;66057;54.718;18.426;2023-03-01T12:29:38;102509.84;;;9.21;66.09
77106;BME280;66057;54.718;18.426;2023-03-01T12:32:29;102517.91;;;9.37;65.82
77106;BME280;66057;54.718;18.426;2023-03-01T12:35:30;102508.13;;;9.43;65.71
77106;BME280;66057;54.718;18.426;2023-03-01T12:49:29;102498.66;;;8.86;67.26
77106;BME280;66057;54.718;18.426;2023-03-01T12:52:11;102497.63;;;9.63;64.57
77106;BME280;66057;54.718;18.426;2023-03-01T12:54:40;102484.97;;;9.90;64.21
77106;BME280;66057;54.718;18.426;2023-03-01T12:57:32;102480.56;;;10.73;61.06
77106;BME280;66057;54.718;18.426;2023-03-01T13:11:20;102481.53;;;9.78;58.59
77106;BME280;66057;54.718;18.426;2023-03-01T13:13:47;102483.50;;;10.17;56.89
77106;BME280;66057;54.718;18.426;2023-03-01T13:16:21;102475.03;;;10.56;56.46
77106;BME280;66057;54.718;18.426;2023-03-01T13:18:49;102484.97;;;10.63;56.72
77106;BME280;66057;54.718;18.426;2023-03-01T13:21:29;102489.84;;;10.10;59.20
77106;BME280;66057;54.718;18.426;2023-03-01T13:23:56;102493.25;;;9.74;60.97
77106;BME280;66057;54.718;18.426;2023-03-01T13:26:22;102488.22;;;9.87;61.92
77106;BME280;66057;54.718;18.426;2023-03-01T13:28:58;102470.94;;;10.10;61.31
77106;BME280;66057;54.718;18.426;2023-03-01T13:33:57;102477.50;;;9.81;59.59
77106;BME280;66057;54.718;18.426;2023-03-01T13:39:04;102481.31;;;9.63;60.04
77106;BME280;66057;54.718;18.426;2023-03-01T13:44:36;102484.00;;;9.30;61.91
77106;BME280;66057;54.718;18.426;2023-03-01T13:49:53;102468.78;;;8.86;64.00
77106;BME280;66057;54.718;18.426;2023-03-01T13:52:53;102479.03;;;8.86;65.00
77106;BME280;66057;54.718;18.426;2023-03-01T13:55:42;102478.50;;;8.35;66.70
77106;BME280;66057;54.718;18.426;2023-03-01T13:59:02;102475.03;;;8.56;67.30
77106;BME280;66057;54.718;18.426;2023-03-01T14:01:30;102477.41;;;8.21;68.45
77106;BME280;66057;54.718;18.426;2023-03-01T14:04:00;102464.50;;;7.98;68.69
77106;BME280;66057;54.718;18.426;2023-03-01T14:06:33;102457.03;;;8.01;68.67
77106;BME280;66057;54.718;18.426;2023-03-01T14:09:20;102490.28;;;8.11;68.51
77106;BME280;66057;54.718;18.426;2023-03-01T14:14:44;102490.69;;;8.06;69.33
77106;BME280;66057;54.718;18.426;2023-03-01T14:17:43;102465.72;;;8.25;67.65
77106;BME280;66057;54.718;18.426;2023-03-01T14:22:49;102481.06;;;8.35;66.94
77106;BME280;66057;54.718;18.426;2023-03-01T14:25:29;102474.50;;;7.95;68.53
77106;BME280;66057;54.718;18.426;2023-03-01T14:28:02;102488.75;;;8.35;68.56
77106;BME280;66057;54.718;18.426;2023-03-01T14:30:36;102488.97;;;8.16;68.29
77106;BME280;66057;54.718;18.426;2023-03-01T14:33:16;102490.09;;;7.76;69.51
77106;BME280;66057;54.718;18.426;2023-03-01T14:35:52;102490.19;;;7.36;69.77
77106;BME280;66057;54.718;18.426;2023-03-01T14:38:27;102488.59;;;7.06;72.50
77106;BME280;66057;54.718;18.426;2023-03-01T14:40:59;102489.69;;;7.30;72.38
77106;BME280;66057;54.718;18.426;2023-03-01T14:43:31;102472.78;;;7.52;71.02
77106;BME280;66057;54.718;18.426;2023-03-01T14:45:58;102478.78;;;7.84;70.67
77106;BME280;66057;54.718;18.426;2023-03-01T14:48:24;102485.28;;;6.97;72.80
77106;BME280;66057;54.718;18.426;2023-03-01T14:50:53;102481.31;;;6.60;75.13
77106;BME280;66057;54.718;18.426;2023-03-01T14:53:25;102483.38;;;6.64;74.49
77106;BME280;66057;54.718;18.426;2023-03-01T14:55:54;102476.44;;;6.43;75.39